sensor_id;sensor_type;location;lat;lon;timestamp;P1;durP1;ratioP1;P2;durP2;ratioP2
46355;SDS011;32066;49.474;11.106;2022-10-31T00:01:27;16.00;;;8.02;;
46355;SDS011;32066;49.474;11.106;2022-10-31T00:03:56;19.30;;;7.65;;
46355;SDS011;32066;49.474;11.106;2022-10-31T00:06:23;17.75;;;8.98;;
46355;SDS011;32066;49.474;11.106;2022-10-31T00:08:51;17.27;;;8.18;;
46355;SDS011;32066;49.474;11.106;2022-10-31T00:11:19;19.35;;;9.73;;
46355;SDS011;32066;49.474;11.106;2022-10-31T00:13:46;25.90;;;12.35;;
46355;SDS011;32066;49.474;11.106;2022-10-31T00:16:15;25.20;;;13.93;;
46355;SDS011;32066;49.474;11.106;2022-10-31T00:18:42;29.05;;;13.15;;
46355;SDS011;32066;49.474;11.106;2022-10-31T00:21:09;22.42;;;13.32;;
46355;SDS011;32066;49.474;11.106;2022-10-31T00:23:36;22.55;;;11.77;;
46355;SDS011;32066;49.474;11.106;2022-10-31T00:26:03;20.45;;;11.00;;
46355;SDS011;32066;49.474;11.106;2022-10-31T00:28:32;18.73;;;9.25;;
46355;SDS011;32066;49.474;11.106;2022-10-31T00:30:59;18.33;;;9.07;;
46355;SDS011;32066;49.474;11.106;2022-10-31T00:33:28;19.52;;;8.80;;
46355;SDS011;32066;49.474;11.106;2022-10-31T00:35:55;15.18;;;8.20;;
46355;SDS011;32066;49.474;11.106;2022-10-31T00:38:22;16.13;;;9.38;;
46355;SDS011;32066;49.474;11.106;2022-10-31T00:40:49;15.93;;;8.98;;
46355;SDS011;32066;49.474;11.106;2022-10-31T00:43:16;11.85;;;7.43;;
46355;SDS011;32066;49.474;11.106;2022-10-31T00:45:42;19.85;;;8.90;;
46355;SDS011;32066;49.474;11.106;2022-10-31T00:48:10;15.05;;;8.57;;
46355;SDS011;32066;49.474;11.106;2022-10-31T00:50:38;14.95;;;7.80;;
46355;SDS011;32066;49.474;11.106;2022-10-31T00:53:05;16.52;;;7.93;;
46355;SDS011;32066;49.474;11.106;2022-10-31T00:55:33;16.25;;;7.63;;
46355;SDS011;32066;49.474;11.106;2022-10-31T00:58:00;15.63;;;8.20;;
46355;SDS011;32066;49.474;11.106;2022-10-31T01:00:27;13.43;;;8.23;;
46355;SDS011;32066;49.474;11.106;2022-10-31T01:02:54;14.85;;;8.45;;
46355;SDS011;32066;49.474;11.106;2022-10-31T01:05:21;15.82;;;7.60;;
46355;SDS011;32066;49.474;11.106;2022-10-31T01:07:50;16.17;;;7.93;;
46355;SDS011;32066;49.474;11.106;2022-10-31T01:10:16;18.17;;;8.60;;
46355;SDS011;32066;49.474;11.106;2022-10-31T01:12:44;14.40;;;7.45;;
46355;SDS011;32066;49.474;11.106;2022-10-31T01:15:13;13.65;;;7.70;;
46355;SDS011;32066;49.474;11.106;2022-10-31T01:17:41;14.85;;;7.72;;
46355;SDS011;32066;49.474;11.106;2022-10-31T01:20:10;13.98;;;7.80;;
46355;SDS011;32066;49.474;11.106;2022-10-31T01:22:38;15.38;;;7.47;;
46355;SDS011;32066;49.474;11.106;2022-10-31T01:25:07;16.45;;;7.88;;
46355;SDS011;32066;49.474;11.106;2022-10-31T01:27:35;15.10;;;7.50;;
46355;SDS011;32066;49.474;11.106;2022-10-31T01:30:02;19.60;;;7.28;;
46355;SDS011;32066;49.474;11.106;2022-10-31T01:32:29;13.00;;;7.72;;
46355;SDS011;32066;49.474;11.106;2022-10-31T01:34:57;14.27;;;7.35;;
46355;SDS011;32066;49.474;11.106;2022-10-31T01:37:23;12.02;;;7.40;;
46355;SDS011;32066;49.474;11.106;2022-10-31T01:39:50;23.40;;;7.68;;
46355;SDS011;32066;49.474;11.106;2022-10-31T01:42:20;15.02;;;7.93;;
46355;SDS011;32066;49.474;11.106;2022-10-31T01:44:51;17.40;;;7.32;;
46355;SDS011;32066;49.474;11.106;2022-10-31T01:50:10;12.85;;;7.40;;
46355;SDS011;32066;49.474;11.106;2022-10-31T01:52:40;15.50;;;7.40;;
46355;SDS011;32066;49.474;11.106;2022-10-31T01:55:11;13.38;;;8.10;;
46355;SDS011;32066;49.474;11.106;2022-10-31T01:57:44;17.33;;;7.68;;
46355;SDS011;32066;49.474;11.106;2022-10-31T02:00:16;17.40;;;7.20;;
46355;SDS011;32066;49.474;11.106;2022-10-31T02:02:43;13.95;;;6.82;;
46355;SDS011;32066;49.474;11.106;2022-10-31T02:05:14;16.33;;;7.38;;
46355;SDS011;32066;49.474;11.106;2022-10-31T02:07:45;14.15;;;7.43;;
46355;SDS011;32066;49.474;11.106;2022-10-31T02:10:18;13.98;;;7.50;;
46355;SDS011;32066;49.474;11.106;2022-10-31T02:12:47;19.70;;;7.93;;
46355;SDS011;32066;49.474;11.106;2022-10-31T02:15:16;14.13;;;7.03;;
46355;SDS011;32066;49.474;11.106;2022-10-31T02:17:43;16.00;;;8.00;;
46355;SDS011;32066;49.474;11.106;2022-10-31T02:20:12;12.85;;;7.32;;
46355;SDS011;32066;49.474;11.106;2022-10-31T02:22:57;14.73;;;7.10;;
46355;SDS011;32066;49.474;11.106;2022-10-31T02:25:58;20.13;;;7.18;;
46355;SDS011;32066;49.474;11.106;2022-10-31T02:28:56;18.92;;;8.00;;
46355;SDS011;32066;49.474;11.106;2022-10-31T02:31:42;12.35;;;7.18;;
46355;SDS011;32066;49.474;11.106;2022-10-31T02:34:14;14.43;;;6.63;;
46355;SDS011;32066;49.474;11.106;2022-10-31T02:36:48;18.73;;;7.03;;
46355;SDS011;32066;49.474;11.106;2022-10-31T02:39:23;16.50;;;7.50;;
46355;SDS011;32066;49.474;11.106;2022-10-31T02:41:55;13.88;;;6.93;;
46355;SDS011;32066;49.474;11.106;2022-10-31T02:44:30;11.63;;;6.93;;
46355;SDS011;32066;49.474;11.106;2022-10-31T02:47:05;17.40;;;8.27;;
46355;SDS011;32066;49.474;11.106;2022-10-31T02:49:35;17.20;;;7.95;;
46355;SDS011;32066;49.474;11.106;2022-10-31T02:52:16;11.48;;;6.93;;
46355;SDS011;32066;49.474;11.106;2022-10-31T02:54:45;14.88;;;7.15;;
46355;SDS011;32066;49.474;11.106;2022-10-31T02:57:13;11.73;;;6.95;;
46355;SDS011;32066;49.474;11.106;2022-10-31T02:59:44;14.60;;;6.75;;
46355;SDS011;32066;49.474;11.106;2022-10-31T03:02:20;11.70;;;6.32;;
46355;SDS011;32066;49.474;11.106;2022-10-31T03:07:47;14.07;;;7.20;;
46355;SDS011;32066;49.474;11.106;2022-10-31T03:10:24;15.95;;;7.47;;
46355;SDS011;32066;49.474;11.106;2022-10-31T03:12:58;12.25;;;7.50;;
46355;SDS011;32066;49.474;11.106;2022-10-31T03:15:33;12.18;;;7.00;;
46355;SDS011;32066;49.474;11.106;2022-10-31T03:18:05;14.38;;;7.15;;
46355;SDS011;32066;49.474;11.106;2022-10-31T03:20:36;13.13;;;7.25;;
46355;SDS011;32066;49.474;11.106;2022-10-31T03:23:06;13.70;;;6.00;;
46355;SDS011;32066;49.474;11.106;2022-10-31T03:25:37;13.65;;;6.47;;
46355;SDS011;32066;49.474;11.106;2022-10-31T03:28:07;15.43;;;6.85;;
46355;SDS011;32066;49.474;11.106;2022-10-31T03:30:36;16.63;;;9.07;;
46355;SDS011;32066;49.474;11.106;2022-10-31T03:33:09;18.33;;;10.95;;
46355;SDS011;32066;49.474;11.106;2022-10-31T03:35:41;23.15;;;13.00;;
46355;SDS011;32066;49.474;11.106;2022-10-31T03:38:10;16.50;;;9.25;;
46355;SDS011;32066;49.474;11.106;2022-10-31T03:40:39;16.10;;;8.18;;
46355;SDS011;32066;49.474;11.106;2022-10-31T03:43:10;14.45;;;7.30;;
46355;SDS011;32066;49.474;11.106;2022-10-31T03:45:41;12.32;;;7.25;;
46355;SDS011;32066;49.474;11.106;2022-10-31T03:48:12;17.63;;;6.70;;
46355;SDS011;32066;49.474;11.106;2022-10-31T03:50:42;11.55;;;6.47;;
46355;SDS011;32066;49.474;11.106;2022-10-31T03:53:16;10.88;;;6.20;;
46355;SDS011;32066;49.474;11.106;2022-10-31T03:55:49;11.70;;;6.30;;
46355;SDS011;32066;49.474;11.106;2022-10-31T03:58:21;16.65;;;6.45;;
46355;SDS011;32066;49.474;11.106;2022-10-31T04:00:52;14.13;;;6.68;;
46355;SDS011;32066;49.474;11.106;2022-10-31T04:03:23;13.27;;;6.63;;
46355;SDS011;32066;49.474;11.106;2022-10-31T04:05:56;11.32;;;6.50;;
46355;SDS011;32066;49.474;11.106;2022-10-31T04:08:28;14.88;;;7.50;;
46355;SDS011;32066;49.474;11.106;2022-10-31T04:10:57;15.43;;;6.68;;
46355;SDS011;32066;49.474;11.106;2022-10-31T04:13:27;13.55;;;6.85;;
46355;SDS011;32066;49.474;11.106;2022-10-31T04:18:32;16.00;;;6.47;;
46355;SDS011;32066;49.474;11.106;2022-10-31T04:21:00;15.55;;;6.57;;
46355;SDS011;32066;49.474;11.106;2022-10-31T04:23:28;14.25;;;6.95;;
46355;SDS011;32066;49.474;11.106;2022-10-31T04:25:55;14.18;;;6.55;;
46355;SDS011;32066;49.474;11.106;2022-10-31T04:28:22;11.93;;;6.22;;
46355;SDS011;32066;49.474;11.106;2022-10-31T04:30:50;19.80;;;5.82;;
46355;SDS011;32066;49.474;11.106;2022-10-31T04:33:17;14.40;;;7.20;;
46355;SDS011;32066;49.474;11.106;2022-10-31T04:35:47;16.58;;;6.28;;
46355;SDS011;32066;49.474;11.106;2022-10-31T04:38:14;13.57;;;6.07;;
46355;SDS011;32066;49.474;11.106;2022-10-31T04:40:42;12.23;;;6.55;;
46355;SDS011;32066;49.474;11.106;2022-10-31T04:43:27;10.80;;;6.00;;
46355;SDS011;32066;49.474;11.106;2022-10-31T04:45:54;13.85;;;6.07;;
46355;SDS011;32066;49.474;11.106;2022-10-31T04:48:21;17.92;;;6.88;;
46355;SDS011;32066;49.474;11.106;2022-10-31T04:50:49;13.73;;;6.80;;
46355;SDS011;32066;49.474;11.106;2022-10-31T04:53:16;12.35;;;6.07;;
46355;SDS011;32066;49.474;11.106;2022-10-31T04:56:06;17.70;;;6.45;;
46355;SDS011;32066;49.474;11.106;2022-10-31T04:58:38;10.25;;;6.30;;
46355;SDS011;32066;49.474;11.106;2022-10-31T05:01:07;12.32;;;6.22;;
46355;SDS011;32066;49.474;11.106;2022-10-31T05:03:34;13.38;;;6.40;;
46355;SDS011;32066;49.474;11.106;2022-10-31T05:06:03;11.95;;;6.22;;
46355;SDS011;32066;49.474;11.106;2022-10-31T05:08:30;11.38;;;6.25;;
46355;SDS011;32066;49.474;11.106;2022-10-31T05:10:59;13.93;;;6.57;;
46355;SDS011;32066;49.474;11.106;2022-10-31T05:13:27;11.98;;;6.28;;
46355;SDS011;32066;49.474;11.106;2022-10-31T05:16:06;13.43;;;6.07;;
46355;SDS011;32066;49.474;11.106;2022-10-31T05:18:51;16.67;;;6.35;;
46355;SDS011;32066;49.474;11.106;2022-10-31T05:21:38;16.52;;;5.85;;
46355;SDS011;32066;49.474;11.106;2022-10-31T05:24:06;12.13;;;6.43;;
46355;SDS011;32066;49.474;11.106;2022-10-31T05:26:34;10.45;;;6.43;;
46355;SDS011;32066;49.474;11.106;2022-10-31T05:29:01;16.13;;;6.45;;
46355;SDS011;32066;49.474;11.106;2022-10-31T05:31:28;12.68;;;7.00;;
46355;SDS011;32066;49.474;11.106;2022-10-31T05:33:55;14.57;;;6.25;;
46355;SDS011;32066;49.474;11.106;2022-10-31T05:36:42;12.30;;;6.27;;
46355;SDS011;32066;49.474;11.106;2022-10-31T05:39:14;13.88;;;6.57;;
46355;SDS011;32066;49.474;11.106;2022-10-31T05:41:45;12.43;;;6.20;;
46355;SDS011;32066;49.474;11.106;2022-10-31T05:44:21;13.80;;;6.15;;
46355;SDS011;32066;49.474;11.106;2022-10-31T05:47:08;14.75;;;6.78;;
46355;SDS011;32066;49.474;11.106;2022-10-31T05:49:53;13.17;;;5.73;;
46355;SDS011;32066;49.474;11.106;2022-10-31T05:52:40;12.07;;;6.13;;
46355;SDS011;32066;49.474;11.106;2022-10-31T05:55:26;10.75;;;5.68;;
46355;SDS011;32066;49.474;11.106;2022-10-31T05:58:15;12.18;;;5.80;;
46355;SDS011;32066;49.474;11.106;2022-10-31T06:01:02;15.50;;;6.10;;
46355;SDS011;32066;49.474;11.106;2022-10-31T06:03:29;10.85;;;5.53;;
46355;SDS011;32066;49.474;11.106;2022-10-31T06:05:57;13.30;;;5.82;;
46355;SDS011;32066;49.474;11.106;2022-10-31T06:08:30;11.30;;;5.97;;
46355;SDS011;32066;49.474;11.106;2022-10-31T06:11:01;10.77;;;5.72;;
46355;SDS011;32066;49.474;11.106;2022-10-31T06:13:47;10.77;;;5.50;;
46355;SDS011;32066;49.474;11.106;2022-10-31T06:16:23;12.57;;;5.50;;
46355;SDS011;32066;49.474;11.106;2022-10-31T06:18:52;10.52;;;5.43;;
46355;SDS011;32066;49.474;11.106;2022-10-31T06:21:20;14.88;;;5.70;;
46355;SDS011;32066;49.474;11.106;2022-10-31T06:23:50;13.90;;;6.90;;
46355;SDS011;32066;49.474;11.106;2022-10-31T06:26:40;12.88;;;5.55;;
46355;SDS011;32066;49.474;11.106;2022-10-31T06:29:07;9.70;;;5.63;;
46355;SDS011;32066;49.474;11.106;2022-10-31T06:31:53;9.85;;;5.35;;
46355;SDS011;32066;49.474;11.106;2022-10-31T06:34:20;11.95;;;5.70;;
46355;SDS011;32066;49.474;11.106;2022-10-31T06:36:47;13.93;;;5.80;;
46355;SDS011;32066;49.474;11.106;2022-10-31T06:39:18;13.38;;;6.07;;
46355;SDS011;32066;49.474;11.106;2022-10-31T06:41:46;11.32;;;5.90;;
46355;SDS011;32066;49.474;11.106;2022-10-31T06:44:14;10.60;;;6.40;;
46355;SDS011;32066;49.474;11.106;2022-10-31T06:46:53;11.13;;;6.18;;
46355;SDS011;32066;49.474;11.106;2022-10-31T06:49:40;12.00;;;6.18;;
46355;SDS011;32066;49.474;11.106;2022-10-31T06:52:13;14.63;;;6.00;;
46355;SDS011;32066;49.474;11.106;2022-10-31T06:54:41;13.50;;;5.60;;
46355;SDS011;32066;49.474;11.106;2022-10-31T06:57:08;11.95;;;6.45;;
46355;SDS011;32066;49.474;11.106;2022-10-31T06:59:37;13.75;;;6.68;;
46355;SDS011;32066;49.474;11.106;2022-10-31T07:02:03;11.98;;;6.38;;
46355;SDS011;32066;49.474;11.106;2022-10-31T07:04:32;12.75;;;5.80;;
46355;SDS011;32066;49.474;11.106;2022-10-31T07:06:59;11.95;;;6.03;;
46355;SDS011;32066;49.474;11.106;2022-10-31T07:09:26;11.35;;;6.20;;
46355;SDS011;32066;49.474;11.106;2022-10-31T07:11:56;9.95;;;5.80;;
46355;SDS011;32066;49.474;11.106;2022-10-31T07:14:23;11.20;;;6.43;;
46355;SDS011;32066;49.474;11.106;2022-10-31T07:16:52;15.38;;;6.65;;
46355;SDS011;32066;49.474;11.106;2022-10-31T07:19:24;10.63;;;5.90;;
46355;SDS011;32066;49.474;11.106;2022-10-31T07:21:51;12.13;;;6.05;;
46355;SDS011;32066;49.474;11.106;2022-10-31T07:24:18;14.70;;;6.03;;
46355;SDS011;32066;49.474;11.106;2022-10-31T07:27:06;10.15;;;6.05;;
46355;SDS011;32066;49.474;11.106;2022-10-31T07:29:33;11.82;;;5.90;;
46355;SDS011;32066;49.474;11.106;2022-10-31T07:32:00;11.70;;;6.00;;
46355;SDS011;32066;49.474;11.106;2022-10-31T07:34:29;13.68;;;6.32;;
46355;SDS011;32066;49.474;11.106;2022-10-31T07:37:18;13.25;;;6.82;;
46355;SDS011;32066;49.474;11.106;2022-10-31T07:39:45;13.93;;;6.68;;
46355;SDS011;32066;49.474;11.106;2022-10-31T07:42:13;11.40;;;5.95;;
46355;SDS011;32066;49.474;11.106;2022-10-31T07:44:43;11.10;;;6.32;;
46355;SDS011;32066;49.474;11.106;2022-10-31T07:47:28;11.02;;;5.97;;
46355;SDS011;32066;49.474;11.106;2022-10-31T07:50:15;11.45;;;5.97;;
46355;SDS011;32066;49.474;11.106;2022-10-31T07:53:03;16.95;;;6.78;;
46355;SDS011;32066;49.474;11.106;2022-10-31T07:55:52;10.90;;;6.20;;
46355;SDS011;32066;49.474;11.106;2022-10-31T07:58:27;12.40;;;5.60;;
46355;SDS011;32066;49.474;11.106;2022-10-31T08:00:57;11.57;;;6.10;;
46355;SDS011;32066;49.474;11.106;2022-10-31T08:03:33;10.13;;;5.82;;
46355;SDS011;32066;49.474;11.106;2022-10-31T08:06:22;12.18;;;6.00;;
46355;SDS011;32066;49.474;11.106;2022-10-31T08:09:10;10.50;;;5.47;;
46355;SDS011;32066;49.474;11.106;2022-10-31T08:11:38;11.35;;;5.78;;
46355;SDS011;32066;49.474;11.106;2022-10-31T08:14:07;10.60;;;5.75;;
46355;SDS011;32066;49.474;11.106;2022-10-31T08:16:34;13.27;;;6.63;;
46355;SDS011;32066;49.474;11.106;2022-10-31T08:19:03;10.88;;;6.10;;
46355;SDS011;32066;49.474;11.106;2022-10-31T08:21:35;11.02;;;6.28;;
46355;SDS011;32066;49.474;11.106;2022-10-31T08:24:02;14.23;;;6.03;;
46355;SDS011;32066;49.474;11.106;2022-10-31T08:26:29;13.07;;;6.35;;
46355;SDS011;32066;49.474;11.106;2022-10-31T08:28:57;11.80;;;6.22;;
46355;SDS011;32066;49.474;11.106;2022-10-31T08:31:28;11.73;;;6.13;;
46355;SDS011;32066;49.474;11.106;2022-10-31T08:34:14;10.38;;;3.80;;
46355;SDS011;32066;49.474;11.106;2022-10-31T08:36:40;10.68;;;4.75;;
46355;SDS011;32066;49.474;11.106;2022-10-31T08:39:24;10.88;;;5.93;;
46355;SDS011;32066;49.474;11.106;2022-10-31T08:41:50;13.32;;;5.95;;
46355;SDS011;32066;49.474;11.106;2022-10-31T08:44:17;12.63;;;5.50;;
46355;SDS011;32066;49.474;11.106;2022-10-31T08:46:46;11.60;;;6.00;;
46355;SDS011;32066;49.474;11.106;2022-10-31T08:49:13;14.70;;;6.50;;
46355;SDS011;32066;49.474;11.106;2022-10-31T08:51:41;11.05;;;6.15;;
46355;SDS011;32066;49.474;11.106;2022-10-31T08:54:08;10.32;;;6.20;;
46355;SDS011;32066;49.474;11.106;2022-10-31T08:56:54;16.13;;;6.70;;
46355;SDS011;32066;49.474;11.106;2022-10-31T08:59:40;13.55;;;7.45;;
46355;SDS011;32066;49.474;11.106;2022-10-31T09:02:21;13.48;;;7.22;;
46355;SDS011;32066;49.474;11.106;2022-10-31T09:04:51;16.98;;;8.40;;
46355;SDS011;32066;49.474;11.106;2022-10-31T09:07:18;13.52;;;8.00;;
46355;SDS011;32066;49.474;11.106;2022-10-31T09:09:45;14.13;;;8.15;;
46355;SDS011;32066;49.474;11.106;2022-10-31T09:12:12;15.32;;;8.07;;
46355;SDS011;32066;49.474;11.106;2022-10-31T09:15:17;15.25;;;7.40;;
46355;SDS011;32066;49.474;11.106;2022-10-31T09:18:15;11.75;;;7.20;;
46355;SDS011;32066;49.474;11.106;2022-10-31T09:20:49;11.43;;;6.50;;
46355;SDS011;32066;49.474;11.106;2022-10-31T09:23:17;12.35;;;6.85;;
46355;SDS011;32066;49.474;11.106;2022-10-31T09:25:45;14.23;;;6.72;;
46355;SDS011;32066;49.474;11.106;2022-10-31T09:28:31;11.75;;;6.70;;
46355;SDS011;32066;49.474;11.106;2022-10-31T09:31:04;11.82;;;6.43;;
46355;SDS011;32066;49.474;11.106;2022-10-31T09:33:55;10.95;;;6.18;;
46355;SDS011;32066;49.474;11.106;2022-10-31T09:36:34;12.60;;;6.22;;
46355;SDS011;32066;49.474;11.106;2022-10-31T09:39:02;16.52;;;6.60;;
46355;SDS011;32066;49.474;11.106;2022-10-31T09:41:34;15.23;;;6.65;;
46355;SDS011;32066;49.474;11.106;2022-10-31T09:44:19;11.35;;;6.07;;
46355;SDS011;32066;49.474;11.106;2022-10-31T09:46:53;16.27;;;7.38;;
46355;SDS011;32066;49.474;11.106;2022-10-31T09:49:35;13.23;;;6.45;;
46355;SDS011;32066;49.474;11.106;2022-10-31T09:52:13;14.88;;;6.25;;
46355;SDS011;32066;49.474;11.106;2022-10-31T09:54:47;15.85;;;6.75;;
46355;SDS011;32066;49.474;11.106;2022-10-31T09:57:19;10.50;;;5.72;;
46355;SDS011;32066;49.474;11.106;2022-10-31T09:59:52;12.38;;;6.97;;
46355;SDS011;32066;49.474;11.106;2022-10-31T10:02:23;19.50;;;7.43;;
46355;SDS011;32066;49.474;11.106;2022-10-31T10:04:56;16.52;;;7.20;;
46355;SDS011;32066;49.474;11.106;2022-10-31T10:10:48;12.25;;;5.07;;
46355;SDS011;32066;49.474;11.106;2022-10-31T10:13:39;13.32;;;5.70;;
46355;SDS011;32066;49.474;11.106;2022-10-31T10:16:25;15.18;;;6.97;;
46355;SDS011;32066;49.474;11.106;2022-10-31T10:19:06;13.63;;;6.88;;
46355;SDS011;32066;49.474;11.106;2022-10-31T10:21:46;14.25;;;6.55;;
46355;SDS011;32066;49.474;11.106;2022-10-31T10:24:24;12.00;;;7.38;;
46355;SDS011;32066;49.474;11.106;2022-10-31T10:27:01;15.43;;;7.43;;
46355;SDS011;32066;49.474;11.106;2022-10-31T10:29:34;16.02;;;7.63;;
46355;SDS011;32066;49.474;11.106;2022-10-31T10:32:13;15.25;;;6.68;;
46355;SDS011;32066;49.474;11.106;2022-10-31T10:34:47;16.85;;;7.45;;
46355;SDS011;32066;49.474;11.106;2022-10-31T10:37:22;16.38;;;6.90;;
46355;SDS011;32066;49.474;11.106;2022-10-31T10:39:55;16.13;;;7.00;;
46355;SDS011;32066;49.474;11.106;2022-10-31T10:42:28;15.35;;;6.68;;
46355;SDS011;32066;49.474;11.106;2022-10-31T10:45:16;11.73;;;6.90;;
46355;SDS011;32066;49.474;11.106;2022-10-31T10:48:05;11.10;;;5.97;;
46355;SDS011;32066;49.474;11.106;2022-10-31T10:53:11;14.30;;;7.25;;
46355;SDS011;32066;49.474;11.106;2022-10-31T10:55:57;13.73;;;6.85;;
46355;SDS011;32066;49.474;11.106;2022-10-31T10:58:28;18.00;;;6.68;;
46355;SDS011;32066;49.474;11.106;2022-10-31T11:00:55;16.02;;;6.90;;
46355;SDS011;32066;49.474;11.106;2022-10-31T11:03:22;15.30;;;6.95;;
46355;SDS011;32066;49.474;11.106;2022-10-31T11:05:50;12.70;;;7.18;;
46355;SDS011;32066;49.474;11.106;2022-10-31T11:08:24;18.95;;;7.82;;
46355;SDS011;32066;49.474;11.106;2022-10-31T11:10:56;15.65;;;6.93;;
46355;SDS011;32066;49.474;11.106;2022-10-31T11:13:24;15.55;;;6.65;;
46355;SDS011;32066;49.474;11.106;2022-10-31T11:15:59;14.18;;;6.57;;
46355;SDS011;32066;49.474;11.106;2022-10-31T11:18:29;12.43;;;6.50;;
46355;SDS011;32066;49.474;11.106;2022-10-31T11:20:58;15.50;;;6.85;;
46355;SDS011;32066;49.474;11.106;2022-10-31T11:23:29;15.93;;;6.20;;
46355;SDS011;32066;49.474;11.106;2022-10-31T11:25:58;13.18;;;6.50;;
46355;SDS011;32066;49.474;11.106;2022-10-31T11:28:26;12.65;;;6.28;;
46355;SDS011;32066;49.474;11.106;2022-10-31T11:30:55;13.25;;;5.93;;
46355;SDS011;32066;49.474;11.106;2022-10-31T11:33:26;14.07;;;6.60;;
46355;SDS011;32066;49.474;11.106;2022-10-31T11:35:56;16.90;;;6.70;;
46355;SDS011;32066;49.474;11.106;2022-10-31T11:38:24;16.35;;;6.88;;
46355;SDS011;32066;49.474;11.106;2022-10-31T11:40:57;12.90;;;6.40;;
46355;SDS011;32066;49.474;11.106;2022-10-31T11:43:29;14.20;;;6.38;;
46355;SDS011;32066;49.474;11.106;2022-10-31T11:45:56;20.83;;;7.22;;
46355;SDS011;32066;49.474;11.106;2022-10-31T11:48:23;13.38;;;7.20;;
46355;SDS011;32066;49.474;11.106;2022-10-31T11:50:52;18.73;;;7.30;;
46355;SDS011;32066;49.474;11.106;2022-10-31T11:53:23;13.65;;;7.55;;
46355;SDS011;32066;49.474;11.106;2022-10-31T11:56:05;12.35;;;6.65;;
46355;SDS011;32066;49.474;11.106;2022-10-31T11:58:38;11.48;;;5.82;;
46355;SDS011;32066;49.474;11.106;2022-10-31T12:01:05;16.88;;;6.70;;
46355;SDS011;32066;49.474;11.106;2022-10-31T12:03:36;12.52;;;5.82;;
46355;SDS011;32066;49.474;11.106;2022-10-31T12:06:09;12.75;;;6.13;;
46355;SDS011;32066;49.474;11.106;2022-10-31T12:08:40;11.93;;;6.57;;
46355;SDS011;32066;49.474;11.106;2022-10-31T12:11:11;14.13;;;6.30;;
46355;SDS011;32066;49.474;11.106;2022-10-31T12:13:57;9.93;;;5.70;;
46355;SDS011;32066;49.474;11.106;2022-10-31T12:16:36;10.77;;;5.43;;
46355;SDS011;32066;49.474;11.106;2022-10-31T12:19:10;11.77;;;5.80;;
46355;SDS011;32066;49.474;11.106;2022-10-31T12:21:49;15.02;;;6.63;;
46355;SDS011;32066;49.474;11.106;2022-10-31T12:24:32;13.27;;;6.10;;
46355;SDS011;32066;49.474;11.106;2022-10-31T12:27:13;11.75;;;5.10;;
46355;SDS011;32066;49.474;11.106;2022-10-31T12:29:52;13.40;;;6.03;;
46355;SDS011;32066;49.474;11.106;2022-10-31T12:32:31;13.93;;;6.47;;
46355;SDS011;32066;49.474;11.106;2022-10-31T12:35:18;11.88;;;6.05;;
46355;SDS011;32066;49.474;11.106;2022-10-31T12:38:03;11.27;;;5.63;;
46355;SDS011;32066;49.474;11.106;2022-10-31T12:40:45;10.60;;;6.03;;
46355;SDS011;32066;49.474;11.106;2022-10-31T12:43:28;12.30;;;6.78;;
46355;SDS011;32066;49.474;11.106;2022-10-31T12:46:03;12.35;;;7.10;;
46355;SDS011;32066;49.474;11.106;2022-10-31T12:48:46;13.45;;;6.55;;
46355;SDS011;32066;49.474;11.106;2022-10-31T12:51:24;15.55;;;6.70;;
46355;SDS011;32066;49.474;11.106;2022-10-31T12:54:04;9.43;;;5.63;;
46355;SDS011;32066;49.474;11.106;2022-10-31T12:56:53;14.20;;;6.28;;
46355;SDS011;32066;49.474;11.106;2022-10-31T12:59:29;14.57;;;6.70;;
46355;SDS011;32066;49.474;11.106;2022-10-31T13:02:00;13.75;;;7.00;;
46355;SDS011;32066;49.474;11.106;2022-10-31T13:04:35;11.68;;;6.38;;
46355;SDS011;32066;49.474;11.106;2022-10-31T13:09:39;13.50;;;6.22;;
46355;SDS011;32066;49.474;11.106;2022-10-31T13:12:11;11.18;;;6.72;;
46355;SDS011;32066;49.474;11.106;2022-10-31T13:14:43;11.05;;;6.50;;
46355;SDS011;32066;49.474;11.106;2022-10-31T13:17:16;14.38;;;6.78;;
46355;SDS011;32066;49.474;11.106;2022-10-31T13:19:50;13.88;;;6.53;;
46355;SDS011;32066;49.474;11.106;2022-10-31T13:22:22;14.80;;;6.78;;
46355;SDS011;32066;49.474;11.106;2022-10-31T13:24:52;12.90;;;6.32;;
46355;SDS011;32066;49.474;11.106;2022-10-31T13:27:23;13.68;;;6.85;;
46355;SDS011;32066;49.474;11.106;2022-10-31T13:29:57;13.38;;;7.85;;
46355;SDS011;32066;49.474;11.106;2022-10-31T13:32:28;10.75;;;7.20;;
46355;SDS011;32066;49.474;11.106;2022-10-31T13:37:32;14.23;;;6.70;;
46355;SDS011;32066;49.474;11.106;2022-10-31T13:40:07;13.45;;;7.20;;
46355;SDS011;32066;49.474;11.106;2022-10-31T13:42:48;12.75;;;7.53;;
46355;SDS011;32066;49.474;11.106;2022-10-31T13:45:23;13.18;;;7.05;;
46355;SDS011;32066;49.474;11.106;2022-10-31T13:47:55;14.40;;;7.85;;
46355;SDS011;32066;49.474;11.106;2022-10-31T13:50:25;12.77;;;7.30;;
46355;SDS011;32066;49.474;11.106;2022-10-31T13:53:03;10.65;;;7.35;;
46355;SDS011;32066;49.474;11.106;2022-10-31T13:55:37;12.95;;;6.53;;
46355;SDS011;32066;49.474;11.106;2022-10-31T13:58:19;12.55;;;7.68;;
46355;SDS011;32066;49.474;11.106;2022-10-31T14:00:58;12.95;;;7.35;;
46355;SDS011;32066;49.474;11.106;2022-10-31T14:03:29;13.38;;;7.15;;
46355;SDS011;32066;49.474;11.106;2022-10-31T14:05:59;17.38;;;7.57;;
46355;SDS011;32066;49.474;11.106;2022-10-31T14:08:26;13.40;;;6.68;;
46355;SDS011;32066;49.474;11.106;2022-10-31T14:10:54;13.52;;;7.35;;
46355;SDS011;32066;49.474;11.106;2022-10-31T14:13:23;12.65;;;6.55;;
46355;SDS011;32066;49.474;11.106;2022-10-31T14:15:56;13.95;;;7.03;;
46355;SDS011;32066;49.474;11.106;2022-10-31T14:18:28;12.48;;;6.57;;
46355;SDS011;32066;49.474;11.106;2022-10-31T14:20:57;12.15;;;6.90;;
46355;SDS011;32066;49.474;11.106;2022-10-31T14:23:37;15.30;;;7.63;;
46355;SDS011;32066;49.474;11.106;2022-10-31T14:26:18;12.32;;;6.90;;
46355;SDS011;32066;49.474;11.106;2022-10-31T14:29:03;14.57;;;7.57;;
46355;SDS011;32066;49.474;11.106;2022-10-31T14:31:54;15.25;;;7.55;;
46355;SDS011;32066;49.474;11.106;2022-10-31T14:34:26;10.82;;;7.00;;
46355;SDS011;32066;49.474;11.106;2022-10-31T14:37:01;14.73;;;7.72;;
46355;SDS011;32066;49.474;11.106;2022-10-31T14:39:54;18.77;;;8.38;;
46355;SDS011;32066;49.474;11.106;2022-10-31T14:42:36;14.68;;;8.10;;
46355;SDS011;32066;49.474;11.106;2022-10-31T14:45:14;13.20;;;8.50;;
46355;SDS011;32066;49.474;11.106;2022-10-31T14:47:52;20.13;;;8.60;;
46355;SDS011;32066;49.474;11.106;2022-10-31T14:50:39;20.60;;;10.73;;
46355;SDS011;32066;49.474;11.106;2022-10-31T14:53:13;17.13;;;9.57;;
46355;SDS011;32066;49.474;11.106;2022-10-31T14:55:45;18.38;;;10.27;;
46355;SDS011;32066;49.474;11.106;2022-10-31T14:58:16;23.10;;;10.30;;
46355;SDS011;32066;49.474;11.106;2022-10-31T15:00:46;13.52;;;8.60;;
46355;SDS011;32066;49.474;11.106;2022-10-31T15:03:16;16.80;;;10.30;;
46355;SDS011;32066;49.474;11.106;2022-10-31T15:05:49;19.33;;;9.85;;
46355;SDS011;32066;49.474;11.106;2022-10-31T15:08:29;15.90;;;10.15;;
46355;SDS011;32066;49.474;11.106;2022-10-31T15:11:02;18.60;;;9.90;;
46355;SDS011;32066;49.474;11.106;2022-10-31T15:16:07;16.73;;;9.57;;
46355;SDS011;32066;49.474;11.106;2022-10-31T15:18:38;19.75;;;9.00;;